首页
METAR-TAF:

METAR-TAF

机场 :

Pittsfield Penstone Municipal Airport

皮茨菲尔德, 伊利诺伊州, 美国

纬度: 39-38-20N, 经度: 090-46-42W, 海拔: 216米

当前天气观测

该预报发布于20分钟前的21:15 UTC
静风
温度 -7°C
湿度 48%
气压 1034 hPa
能見度: 16.1公里
天空无云

METAR: KPPQ 122115Z AUTO 00000KT 10SM CLR M07/M16 A3052 RMK AO2 T10741161

时间: 15:35 (21:35 UTC)


TAF: 丢失

超过4000个机场的气象观测和天气预报(METAR&TAF报告)。

可查询的气象台以黄色和红色小点在地图上表示。

将鼠标移到小点上方,可查看气象台名称。

然后点击查看天气观测和预报。

如需切换地图:点击带黑十字的绿色按钮放大地图;点击带横线的绿色按钮缩小地图;或者点击绿色箭头查看邻近地区的地图。


METAR-TAF: